ADDS METAR Data

Data at: 0253 UTC 21 Jun 2018

METAR for:KATL (Atlanta/Hartsfield-J, GA, US)
Text:KATL 210152Z 32006KT 10SM FEW150 SCT250 29/19 A2994 RMK AO2 SLP127 T02940189
Temperature: 29.4°C ( 85°F)
Dewpoint: 18.9°C ( 66°F) [RH = 53%]
Pressure (altimeter):29.94 inches Hg (1014.0 mb) [Sea level pressure: 1012.7 mb]
Winds:from the NW (320 degrees) at 7 MPH (6 knots; 3.1 m/s)
Visibility:10 or more sm (16+ km)
Ceiling:at least 12,000 feet AGL
Clouds: few clouds at 15000 feet AGL, scattered clouds at 25000 feet AGL